Time;durP1;ratioP1;P1;durP2;ratioP2;P2;SDS_P1;SDS_P2;PMS_P1;PMS_P2;Temp;Humidity;BMP_temperature;BMP_pressure;BME280_temperature;BME280_humidity;BME280_pressure;Samples;Min_cycle;Max_cycle;Signal;HPM_P1;HPM_P2
2023/08/09 00:02:02;;;;;;;4.78;2.53;;;14.90;99.90;;;;;;5033817;28;20463;-53
2023/08/09 00:04:28;;;;;;;5.43;2.60;;;14.80;99.90;;;;;;5033638;28;20037;-50
2023/08/09 00:06:54;;;;;;;7.70;2.80;;;14.70;99.90;;;;;;5033362;28;20046;-48
2023/08/09 00:09:22;;;;;;;7.53;3.58;;;14.60;99.90;;;;;;5033707;28;20053;-53
2023/08/09 00:11:48;;;;;;;11.40;4.43;;;14.50;99.90;;;;;;5033266;28;20034;-52
2023/08/09 00:14:13;;;;;;;13.57;4.95;;;14.40;99.90;;;;;;5033409;28;20041;-53
2023/08/09 00:16:39;;;;;;;10.63;4.13;;;14.40;99.90;;;;;;5033311;28;20088;-53
2023/08/09 00:19:05;;;;;;;7.30;3.25;;;14.30;99.90;;;;;;5033414;28;20099;-50
2023/08/09 00:21:31;;;;;;;8.40;4.00;;;14.30;99.90;;;;;;5033580;28;20041;-51
2023/08/09 00:23:58;;;;;;;8.32;3.47;;;14.20;99.90;;;;;;5033166;28;20030;-50
2023/08/09 00:26:25;;;;;;;7.40;3.20;;;14.10;99.90;;;;;;5033468;28;20060;-52
2023/08/09 00:28:52;;;;;;;6.68;2.50;;;14.10;99.90;;;;;;5033304;28;20029;-48
2023/08/09 00:31:18;;;;;;;5.55;2.67;;;14.10;99.90;;;;;;5015411;28;20128;-49
2023/08/09 00:33:45;;;;;;;5.55;2.42;;;14.10;99.90;;;;;;5015396;28;20171;-53
2023/08/09 00:36:11;;;;;;;7.60;2.67;;;14.10;99.90;;;;;;5015154;28;20029;-53
2023/08/09 00:38:36;;;;;;;8.45;2.75;;;14.10;99.90;;;;;;5033401;28;20482;-52
2023/08/09 00:41:02;;;;;;;7.45;2.72;;;14.10;99.90;;;;;;5015660;28;20045;-54
2023/08/09 00:43:28;;;;;;;9.45;3.47;;;14.00;99.90;;;;;;5015257;28;20075;-53
2023/08/09 00:45:55;;;;;;;8.88;3.17;;;14.10;99.90;;;;;;5033211;28;20033;-54
2023/08/09 00:48:21;;;;;;;10.93;4.38;;;14.10;99.90;;;;;;5033112;28;20063;-52
2023/08/09 00:50:47;;;;;;;9.73;3.60;;;14.10;99.90;;;;;;5032783;28;20046;-54
2023/08/09 00:53:13;;;;;;;11.75;4.18;;;14.10;99.90;;;;;;5014909;28;20039;-50
2023/08/09 00:55:39;;;;;;;12.15;4.13;;;14.10;99.90;;;;;;5014752;28;20120;-51
2023/08/09 00:58:05;;;;;;;10.05;3.92;;;14.10;99.90;;;;;;5032777;28;20051;-52
2023/08/09 01:00:31;;;;;;;12.60;4.07;;;14.10;99.90;;;;;;5014913;28;20021;-52
2023/08/09 01:02:58;;;;;;;10.75;3.80;;;14.10;99.90;;;;;;5032399;28;20025;-50
2023/08/09 01:05:32;;;;;;;11.57;3.58;;;14.10;99.90;;;;;;5032372;28;20057;-50
2023/08/09 01:08:14;;;;;;;9.10;3.50;;;14.10;99.90;;;;;;5014378;28;20491;-53
2023/08/09 01:10:47;;;;;;;6.70;2.70;;;14.10;99.90;;;;;;5014768;28;20379;-49
2023/08/09 01:13:19;;;;;;;6.45;2.30;;;14.10;99.90;;;;;;5014620;28;20033;-51
2023/08/09 01:15:47;;;;;;;7.65;2.47;;;14.00;99.90;;;;;;5014560;28;20101;-51
2023/08/09 01:18:14;;;;;;;4.72;1.67;;;14.00;99.90;;;;;;5015186;28;20022;-48
2023/08/09 01:20:40;;;;;;;4.70;1.83;;;14.00;99.90;;;;;;5014847;28;20478;-49
2023/08/09 01:23:15;;;;;;;6.97;1.80;;;14.00;99.90;;;;;;5032184;28;20082;-51
2023/08/09 01:25:41;;;;;;;5.80;2.22;;;14.00;99.90;;;;;;5014535;28;20033;-53
2023/08/09 01:28:06;;;;;;;8.05;2.50;;;14.00;99.90;;;;;;5032238;28;20477;-49
2023/08/09 01:30:32;;;;;;;5.55;2.40;;;14.00;99.90;;;;;;5014229;28;20029;-49
2023/08/09 01:32:59;;;;;;;7.20;2.40;;;14.00;99.90;;;;;;5013969;28;20095;-52
2023/08/09 01:35:26;;;;;;;9.07;2.50;;;14.00;99.90;;;;;;5031735;28;20029;-51
2023/08/09 01:38:03;;;;;;;9.75;3.15;;;14.00;99.90;;;;;;5014141;28;20506;-52
2023/08/09 01:40:31;;;;;;;7.90;2.78;;;14.00;99.90;;;;;;5032018;28;20033;-50
2023/08/09 01:42:57;;;;;;;7.57;2.80;;;13.90;99.90;;;;;;5013818;28;20317;-49
2023/08/09 01:45:24;;;;;;;11.32;2.97;;;13.90;99.90;;;;;;5013866;28;20042;-50
2023/08/09 01:47:50;;;;;;;9.75;2.92;;;13.90;99.90;;;;;;5013891;28;20478;-53
2023/08/09 01:50:27;;;;;;;7.55;3.05;;;13.90;99.90;;;;;;5031639;28;20061;-51
2023/08/09 01:52:58;;;;;;;6.93;2.60;;;14.00;99.90;;;;;;5013583;28;20037;-51
2023/08/09 01:55:25;;;;;;;6.70;3.15;;;13.90;99.90;;;;;;5031188;28;20439;-51
2023/08/09 01:57:52;;;;;;;7.47;3.00;;;14.00;99.90;;;;;;5031530;28;20156;-49
2023/08/09 02:00:22;;;;;;;10.32;3.15;;;13.90;99.90;;;;;;5014878;28;20029;-51
2023/08/09 02:02:50;;;;;;;8.45;3.17;;;13.90;99.90;;;;;;5031560;28;20029;-50
2023/08/09 02:05:16;;;;;;;11.20;3.38;;;13.90;99.90;;;;;;5014139;28;20302;-51
2023/08/09 02:07:42;;;;;;;9.80;2.85;;;13.90;99.90;;;;;;5013664;28;20033;-53
2023/08/09 02:10:10;;;;;;;7.80;2.90;;;13.90;99.90;;;;;;5031477;28;20156;-53
2023/08/09 02:12:37;;;;;;;5.80;2.67;;;13.80;99.90;;;;;;5013468;28;20030;-49
2023/08/09 02:15:03;;;;;;;6.38;2.10;;;13.80;99.90;;;;;;5013477;28;20037;-49
2023/08/09 02:17:29;;;;;;;7.68;2.35;;;13.80;99.90;;;;;;5013361;28;20056;-50
2023/08/09 02:19:58;;;;;;;5.38;2.00;;;13.80;99.90;;;;;;5012680;28;20026;-52
2023/08/09 02:22:24;;;;;;;7.07;2.50;;;13.80;99.90;;;;;;5013400;28;20034;-52
2023/08/09 02:24:51;;;;;;;5.60;2.05;;;13.80;99.90;;;;;;5013254;28;20029;-53
2023/08/09 02:27:16;;;;;;;5.43;2.10;;;13.70;99.90;;;;;;5013106;28;20029;-53
2023/08/09 02:29:42;;;;;;;6.30;1.88;;;13.70;99.90;;;;;;5032033;28;20033;-50
2023/08/09 02:32:08;;;;;;;3.85;1.67;;;13.70;99.90;;;;;;5013164;28;20033;-49
2023/08/09 02:34:33;;;;;;;6.85;1.90;;;13.70;99.90;;;;;;5030831;28;20556;-48
2023/08/09 02:37:00;;;;;;;4.47;1.60;;;13.70;99.90;;;;;;5030512;28;20033;-50
2023/08/09 02:39:25;;;;;;;3.13;1.63;;;13.60;99.90;;;;;;5031012;28;20032;-50
2023/08/09 02:41:51;;;;;;;5.28;1.67;;;13.60;99.90;;;;;;5013023;28;20032;-50
2023/08/09 02:44:17;;;;;;;3.92;1.98;;;13.60;99.90;;;;;;5030861;28;20029;-52
2023/08/09 02:46:42;;;;;;;4.30;1.98;;;13.60;99.90;;;;;;5030982;28;20041;-49
2023/08/09 02:49:08;;;;;;;5.28;2.30;;;13.60;99.90;;;;;;5013050;28;20033;-51
2023/08/09 02:51:34;;;;;;;4.25;2.50;;;13.60;99.90;;;;;;5012826;28;20037;-51
2023/08/09 02:54:04;;;;;;;6.75;2.72;;;13.60;99.90;;;;;;5012827;28;20037;-49
2023/08/09 02:56:31;;;;;;;8.48;3.28;;;13.60;99.90;;;;;;5012971;28;20040;-50
2023/08/09 02:58:58;;;;;;;6.97;3.05;;;13.70;99.90;;;;;;5013327;28;20126;-49
2023/08/09 03:01:24;;;;;;;5.97;3.20;;;13.70;99.90;;;;;;5013054;28;20079;-49
2023/08/09 03:03:52;;;;;;;6.43;2.83;;;13.70;99.90;;;;;;5012890;28;20026;-52
2023/08/09 03:06:20;;;;;;;6.72;3.00;;;13.70;99.90;;;;;;5013098;28;20087;-48
2023/08/09 03:08:47;;;;;;;8.98;3.10;;;13.80;99.90;;;;;;5030725;28;20041;-52
2023/08/09 03:11:13;;;;;;;5.13;3.10;;;13.80;99.90;;;;;;5012852;28;20490;-53
2023/08/09 03:13:39;;;;;;;5.07;2.65;;;13.70;99.90;;;;;;5030649;28;20033;-48
2023/08/09 03:16:05;;;;;;;4.50;2.63;;;13.70;99.90;;;;;;5012728;28;20030;-49
2023/08/09 03:18:31;;;;;;;6.63;2.70;;;13.70;99.90;;;;;;5012766;28;20079;-49
2023/08/09 03:20:57;;;;;;;5.53;2.88;;;13.70;99.90;;;;;;5012912;28;20022;-50
2023/08/09 03:23:23;;;;;;;8.10;3.50;;;13.70;99.90;;;;;;5012456;28;20063;-50
2023/08/09 03:25:49;;;;;;;6.30;3.50;;;13.60;99.90;;;;;;5030308;28;20022;-49
2023/08/09 03:28:16;;;;;;;6.65;3.30;;;13.60;99.90;;;;;;5012657;28;20041;-49
2023/08/09 03:30:41;;;;;;;8.70;4.07;;;13.60;99.90;;;;;;5013834;28;20033;-51
2023/08/09 03:33:08;;;;;;;6.80;3.47;;;13.60;99.90;;;;;;5033898;28;20029;-49
2023/08/09 03:35:34;;;;;;;6.80;3.88;;;13.60;99.90;;;;;;5016070;28;20026;-52
2023/08/09 03:38:00;;;;;;;10.07;4.15;;;13.60;99.90;;;;;;5016365;28;20037;-50
2023/08/09 03:40:25;;;;;;;8.88;4.65;;;13.60;99.90;;;;;;5016422;28;20033;-50
2023/08/09 03:42:52;;;;;;;7.82;4.25;;;13.60;99.90;;;;;;5016174;28;20032;-49
2023/08/09 03:45:18;;;;;;;8.93;4.05;;;13.60;99.90;;;;;;5033782;28;20034;-53
2023/08/09 03:47:44;;;;;;;7.78;4.07;;;13.60;99.90;;;;;;5016042;28;20402;-50
2023/08/09 03:50:11;;;;;;;7.68;4.40;;;13.60;99.90;;;;;;5015994;28;20029;-51
2023/08/09 03:52:37;;;;;;;10.20;4.30;;;13.60;99.90;;;;;;5033607;28;20022;-49
2023/08/09 03:55:04;;;;;;;9.20;4.90;;;13.50;99.90;;;;;;5016064;28;20418;-53
2023/08/09 03:57:30;;;;;;;8.27;4.50;;;13.50;99.90;;;;;;5033812;28;20387;-53
2023/08/09 03:59:56;;;;;;;9.18;4.68;;;13.60;99.90;;;;;;5033748;28;20043;-52
2023/08/09 04:02:24;;;;;;;8.57;4.88;;;13.50;99.90;;;;;;5015560;28;20120;-52
2023/08/09 04:04:50;;;;;;;8.90;4.68;;;13.60;99.90;;;;;;5033952;28;20045;-53
2023/08/09 04:07:15;;;;;;;9.38;5.28;;;13.60;99.90;;;;;;5015498;28;20036;-48
2023/08/09 04:09:41;;;;;;;10.70;5.15;;;13.60;99.90;;;;;;5033574;28;20029;-52
2023/08/09 04:12:08;;;;;;;10.82;5.70;;;13.50;99.90;;;;;;5033459;28;20330;-53
2023/08/09 04:14:33;;;;;;;10.75;5.57;;;13.50;99.90;;;;;;5033358;28;20033;-53
2023/08/09 04:17:00;;;;;;;9.55;5.00;;;13.50;99.90;;;;;;5015348;28;20167;-53
2023/08/09 04:19:29;;;;;;;10.10;5.60;;;13.50;99.90;;;;;;5015709;28;20120;-55
2023/08/09 04:21:55;;;;;;;11.07;5.78;;;13.40;99.90;;;;;;5015450;28;20390;-53
2023/08/09 04:24:20;;;;;;;9.48;5.13;;;13.40;99.90;;;;;;5033814;28;20026;-52
2023/08/09 04:26:46;;;;;;;10.57;5.53;;;13.40;99.90;;;;;;5033476;28;20044;-53
2023/08/09 04:29:12;;;;;;;12.73;6.00;;;13.40;99.90;;;;;;5033398;28;20052;-53
2023/08/09 04:31:37;;;;;;;11.70;5.90;;;13.30;99.90;;;;;;5032846;28;20063;-53
2023/08/09 04:34:03;;;;;;;10.38;5.85;;;13.30;99.90;;;;;;5033287;28;20480;-50
2023/08/09 04:36:31;;;;;;;9.50;4.93;;;13.30;99.90;;;;;;5033082;28;20095;-50
2023/08/09 04:38:57;;;;;;;9.95;5.50;;;13.30;99.90;;;;;;5033488;28;20397;-49
2023/08/09 04:41:23;;;;;;;10.95;4.88;;;13.30;99.90;;;;;;5033366;28;20112;-52
2023/08/09 04:43:49;;;;;;;12.35;5.82;;;13.30;99.90;;;;;;5032333;28;20097;-50
2023/08/09 04:46:16;;;;;;;10.18;5.07;;;13.30;99.90;;;;;;5033202;28;20037;-53
2023/08/09 04:48:43;;;;;;;11.70;6.00;;;13.30;99.90;;;;;;5033335;28;20078;-52
2023/08/09 04:51:09;;;;;;;11.35;5.53;;;13.20;99.90;;;;;;5032961;28;20038;-53
2023/08/09 04:53:35;;;;;;;12.32;6.15;;;13.20;99.90;;;;;;5032696;28;20098;-50
2023/08/09 04:56:03;;;;;;;10.40;5.40;;;13.20;99.90;;;;;;5015047;28;20037;-50
2023/08/09 04:58:29;;;;;;;11.27;5.60;;;13.20;99.90;;;;;;5032696;28;20033;-50
2023/08/09 05:00:55;;;;;;;10.55;5.68;;;13.20;99.90;;;;;;5033068;28;20385;-52
2023/08/09 05:03:21;;;;;;;11.20;5.80;;;13.20;99.90;;;;;;5032723;28;20026;-53
2023/08/09 05:05:46;;;;;;;10.45;5.50;;;13.20;99.90;;;;;;5032325;28;20033;-50
2023/08/09 05:08:12;;;;;;;10.30;5.57;;;13.20;99.90;;;;;;5032582;28;20609;-49
2023/08/09 05:10:38;;;;;;;11.32;5.68;;;13.20;99.90;;;;;;5032528;28;20025;-53
2023/08/09 05:13:04;;;;;;;9.73;5.55;;;13.20;99.90;;;;;;5032244;28;20108;-51
2023/08/09 05:15:29;;;;;;;10.85;5.78;;;13.20;99.90;;;;;;5031919;28;20107;-51
2023/08/09 05:17:55;;;;;;;10.68;5.78;;;13.30;99.90;;;;;;5032310;28;20044;-51
2023/08/09 05:20:20;;;;;;;10.27;5.40;;;13.40;99.90;;;;;;5032115;28;20029;-51
2023/08/09 05:22:46;;;;;;;11.18;6.22;;;13.40;99.90;;;;;;5031940;28;20482;-49
2023/08/09 05:25:11;;;;;;;12.35;6.25;;;13.50;99.90;;;;;;5031844;28;20030;-49
2023/08/09 05:27:37;;;;;;;10.32;5.28;;;13.50;99.90;;;;;;5032572;28;20056;-50
2023/08/09 05:30:06;;;;;;;9.30;5.10;;;13.60;99.90;;;;;;5031991;28;20040;-50
2023/08/09 05:32:32;;;;;;;;;;;13.70;99.90;;;;;;5032244;28;20034;-49
2023/08/09 05:34:58;;;;;;;14.77;5.90;;;13.70;99.90;;;;;;5031793;28;20012;-51
2023/08/09 05:37:23;;;;;;;12.77;5.85;;;13.80;99.90;;;;;;5031416;28;20029;-53
2023/08/09 05:39:49;;;;;;;15.90;7.30;;;13.80;99.90;;;;;;5033406;28;20033;-49
2023/08/09 05:42:14;;;;;;;13.73;6.65;;;13.80;99.90;;;;;;5031539;28;20025;-49
2023/08/09 05:44:40;;;;;;;13.20;6.20;;;13.80;99.90;;;;;;5031566;28;20486;-49
2023/08/09 05:47:06;;;;;;;15.18;6.82;;;13.80;99.90;;;;;;5031429;28;20041;-49
2023/08/09 05:49:31;;;;;;;16.88;7.38;;;13.80;99.90;;;;;;5031509;28;20033;-50
2023/08/09 05:51:57;;;;;;;17.38;7.20;;;13.90;99.90;;;;;;5031289;28;20470;-48
2023/08/09 05:54:23;;;;;;;18.05;6.82;;;13.80;99.90;;;;;;5013610;28;20452;-50
2023/08/09 05:56:49;;;;;;;20.20;8.95;;;13.90;99.90;;;;;;5031171;28;20033;-54
2023/08/09 05:59:14;;;;;;;16.98;8.02;;;13.90;99.90;;;;;;5031190;28;20486;-53
2023/08/09 06:01:40;;;;;;;19.88;8.68;;;13.90;99.90;;;;;;5031037;28;20021;-54
2023/08/09 06:04:07;;;;;;;21.42;10.23;;;13.90;99.90;;;;;;5031203;28;20103;-53
2023/08/09 06:06:36;;;;;;;24.50;10.35;;;14.00;99.90;;;;;;5031175;28;20034;-51
2023/08/09 06:09:05;;;;;;;;;;;14.00;99.90;;;;;;5014077;28;20049;-51
2023/08/09 06:11:31;;;;;;;22.35;9.35;;;14.00;99.90;;;;;;5031109;28;19909;-51
2023/08/09 06:13:57;;;;;;;19.73;9.13;;;14.00;99.90;;;;;;5031397;28;20383;-52
2023/08/09 06:16:23;;;;;;;20.45;8.52;;;14.00;99.90;;;;;;5030984;28;20120;-52
2023/08/09 06:18:49;;;;;;;18.85;9.27;;;14.10;99.90;;;;;;5031201;28;20064;-49
2023/08/09 06:21:14;;;;;;;21.30;8.50;;;14.10;99.90;;;;;;5031169;28;20033;-50
2023/08/09 06:23:40;;;;;;;20.05;8.73;;;14.10;99.90;;;;;;5031107;28;20083;-53
2023/08/09 06:26:05;;;;;;;22.05;10.02;;;14.20;99.90;;;;;;5031036;28;20037;-53
2023/08/09 06:28:31;;;;;;;22.80;9.75;;;14.20;99.90;;;;;;5031197;28;20087;-50
2023/08/09 06:30:57;;;;;;;23.58;10.07;;;14.20;99.90;;;;;;5030988;28;20498;-52
2023/08/09 06:33:22;;;;;;;26.00;11.55;;;14.30;99.90;;;;;;5030691;28;20029;-53
2023/08/09 06:35:48;;;;;;;26.80;10.57;;;14.30;99.90;;;;;;5030885;28;20033;-52
2023/08/09 06:38:14;;;;;;;21.67;9.13;;;14.30;99.90;;;;;;5030978;28;20030;-52
2023/08/09 06:40:39;;;;;;;18.48;8.77;;;14.30;99.90;;;;;;5031159;28;20025;-52
2023/08/09 06:43:05;;;;;;;12.70;6.93;;;14.30;99.90;;;;;;5030973;28;20069;-53
2023/08/09 06:45:33;;;;;;;11.23;6.13;;;14.40;99.90;;;;;;5031814;28;20021;-49
2023/08/09 06:47:59;;;;;;;11.98;6.10;;;14.40;99.90;;;;;;5032453;28;20026;-53
2023/08/09 06:50:26;;;;;;;9.90;5.57;;;14.50;99.90;;;;;;5030722;28;20501;-53
2023/08/09 06:52:52;;;;;;;9.73;5.80;;;14.60;99.90;;;;;;5030499;28;20061;-52
2023/08/09 06:55:18;;;;;;;10.90;6.88;;;14.60;99.90;;;;;;5030396;28;20060;-52
2023/08/09 06:57:44;;;;;;;15.15;7.95;;;14.60;99.90;;;;;;5030618;28;20397;-51
2023/08/09 07:00:16;;;;;;;15.40;8.82;;;14.50;99.90;;;;;;5030563;28;20025;-53
2023/08/09 07:02:43;;;;;;;18.15;8.45;;;14.60;99.90;;;;;;5030752;28;20393;-53
2023/08/09 07:05:14;;;;;;;13.00;6.75;;;14.60;99.90;;;;;;5012902;28;20061;-52
2023/08/09 07:07:44;;;;;;;8.82;5.38;;;14.70;99.90;;;;;;5034618;28;20045;-52
2023/08/09 07:10:12;;;;;;;12.35;5.90;;;14.80;99.90;;;;;;5035125;28;20049;-48
2023/08/09 07:12:38;;;;;;;10.45;5.85;;;14.90;99.90;;;;;;5034474;28;20547;-52
2023/08/09 07:15:08;;;;;;;11.45;6.13;;;15.00;99.90;;;;;;5034683;28;20029;-52
2023/08/09 07:17:37;;;;;;;12.25;6.72;;;15.10;99.90;;;;;;5034653;28;20065;-52
2023/08/09 07:20:14;;;;;;;17.10;8.75;;;15.10;99.90;;;;;;5034539;28;20072;-51
2023/08/09 07:22:40;;;;;;;16.85;8.55;;;15.10;99.90;;;;;;5034063;28;20029;-52
2023/08/09 07:25:10;;;;;;;15.98;8.93;;;15.10;99.90;;;;;;5016713;28;20529;-52
2023/08/09 07:27:47;;;;;;;14.70;8.25;;;15.10;99.90;;;;;;5016716;28;20065;-53
2023/08/09 07:30:15;;;;;;;13.27;6.53;;;15.20;99.90;;;;;;5034765;28;20117;-53
2023/08/09 07:32:41;;;;;;;13.15;5.65;;;15.30;99.90;;;;;;5033940;28;20091;-53
2023/08/09 07:35:08;;;;;;;9.63;5.38;;;15.40;99.90;;;;;;5034123;28;20037;-53
2023/08/09 07:37:35;;;;;;;10.80;5.45;;;15.60;99.90;;;;;;5033996;28;20112;-53
2023/08/09 07:40:04;;;;;;;11.30;5.65;;;15.80;99.90;;;;;;5034077;28;20387;-50
2023/08/09 07:42:29;;;;;;;8.60;5.43;;;15.80;99.90;;;;;;5034056;28;20037;-50
2023/08/09 07:44:55;;;;;;;10.57;5.03;;;15.80;99.90;;;;;;5034128;28;20117;-52
2023/08/09 07:47:20;;;;;;;12.65;6.50;;;15.80;99.90;;;;;;5016191;28;20037;-52
2023/08/09 07:49:46;;;;;;;20.95;9.82;;;15.80;99.90;;;;;;5034067;28;20032;-50
2023/08/09 07:52:12;;;;;;;19.70;9.40;;;15.90;99.90;;;;;;5033944;28;20030;-52
2023/08/09 07:54:37;;;;;;;13.18;7.13;;;15.90;99.90;;;;;;5034042;28;20120;-52
2023/08/09 07:57:03;;;;;;;15.35;7.70;;;16.00;99.90;;;;;;5033737;28;20033;-52
2023/08/09 07:59:29;;;;;;;11.23;6.10;;;16.00;99.90;;;;;;5033995;28;20021;-52
2023/08/09 08:01:54;;;;;;;8.98;4.90;;;16.10;99.90;;;;;;5033620;28;20390;-52
2023/08/09 08:04:20;;;;;;;9.95;4.07;;;16.20;99.90;;;;;;5033819;28;20037;-51
2023/08/09 08:06:48;;;;;;;10.40;5.47;;;16.10;99.90;;;;;;5033878;28;20045;-53
2023/08/09 08:09:14;;;;;;;14.38;7.35;;;16.10;99.90;;;;;;5016116;28;20120;-50
2023/08/09 08:11:40;;;;;;;17.52;8.90;;;16.10;99.90;;;;;;5033564;28;20430;-53
2023/08/09 08:14:08;;;;;;;15.73;8.00;;;16.20;99.90;;;;;;5033575;28;20040;-53
2023/08/09 08:16:34;;;;;;;15.25;8.32;;;16.10;99.90;;;;;;5032819;28;20030;-49
2023/08/09 08:18:59;;;;;;;17.65;9.18;;;16.00;99.90;;;;;;5032683;28;20371;-52
2023/08/09 08:21:25;;;;;;;18.80;8.80;;;15.90;99.90;;;;;;5033298;28;20220;-52
2023/08/09 08:23:52;;;;;;;13.77;7.93;;;15.80;99.90;;;;;;5033566;28;20076;-52
2023/08/09 08:26:18;;;;;;;15.77;8.18;;;15.80;99.90;;;;;;5033310;28;20037;-53
2023/08/09 08:28:44;;;;;;;20.27;10.40;;;15.80;99.90;;;;;;5033487;28;20116;-51
2023/08/09 08:31:10;;;;;;;20.40;10.55;;;15.90;99.90;;;;;;5033198;28;20141;-53
2023/08/09 08:33:35;;;;;;;17.83;10.10;;;16.00;99.90;;;;;;5033156;28;20037;-50
2023/08/09 08:36:02;;;;;;;21.10;10.73;;;16.00;99.90;;;;;;5033428;28;20437;-52
2023/08/09 08:38:28;;;;;;;25.80;12.15;;;16.00;99.90;;;;;;5033168;28;20021;-53
2023/08/09 08:40:54;;;;;;;37.33;14.68;;;16.10;99.90;;;;;;5033012;28;20076;-53
2023/08/09 08:43:20;;;;;;;25.02;13.00;;;16.30;99.90;;;;;;5033630;28;20036;-50
2023/08/09 08:45:47;;;;;;;17.90;10.48;;;16.40;99.90;;;;;;5032656;28;20029;-50
2023/08/09 08:48:13;;;;;;;22.83;12.27;;;16.70;99.90;;;;;;5033109;28;20398;-52
2023/08/09 08:50:41;;;;;;;26.85;14.00;;;16.80;99.90;;;;;;5033127;28;20038;-49
2023/08/09 08:53:08;;;;;;;21.33;11.57;;;17.00;99.90;;;;;;5032615;28;20077;-53
2023/08/09 08:55:34;;;;;;;25.80;13.55;;;17.10;99.90;;;;;;5032328;28;20076;-50
2023/08/09 08:58:00;;;;;;;26.15;13.35;;;17.30;99.90;;;;;;5033074;28;20080;-50
2023/08/09 09:00:25;;;;;;;26.83;13.77;;;17.40;99.90;;;;;;5032572;28;20429;-51
2023/08/09 09:02:51;;;;;;;26.15;13.90;;;17.50;99.90;;;;;;5032378;28;20025;-49
2023/08/09 09:05:17;;;;;;;22.60;12.55;;;17.50;99.90;;;;;;5032450;28;20044;-53
2023/08/09 09:07:45;;;;;;;27.27;13.65;;;17.60;99.90;;;;;;5032463;28;20375;-52
2023/08/09 09:10:12;;;;;;;22.08;11.32;;;17.70;99.90;;;;;;5032405;28;20069;-52
2023/08/09 09:12:39;;;;;;;31.67;17.10;;;17.80;99.90;;;;;;5032179;28;20133;-53
2023/08/09 09:15:06;;;;;;;21.98;12.85;;;17.90;99.90;;;;;;5032085;28;20495;-52
2023/08/09 09:17:44;;;;;;;21.13;12.43;;;17.70;99.90;;;;;;5032011;28;20033;-53
2023/08/09 09:20:27;;;;;;;28.80;14.27;;;17.60;99.90;;;;;;5032415;28;20021;-52
2023/08/09 09:22:53;;;;;;;19.60;11.35;;;17.60;99.90;;;;;;5032030;28;20021;-53
2023/08/09 09:25:22;;;;;;;22.75;12.00;;;17.40;99.90;;;;;;5014832;28;20052;-53
2023/08/09 09:27:52;;;;;;;22.55;12.88;;;17.40;99.90;;;;;;5032842;28;20382;-53
2023/08/09 09:30:24;;;;;;;16.55;9.90;;;17.50;99.90;;;;;;5031732;28;20382;-51
2023/08/09 09:32:52;;;;;;;20.17;8.45;;;17.60;99.90;;;;;;5031702;28;20075;-51
2023/08/09 09:35:18;;;;;;;12.43;7.22;;;17.70;99.90;;;;;;5031675;28;20425;-53
2023/08/09 09:37:48;;;;;;;12.43;6.90;;;17.90;99.90;;;;;;5031914;28;20029;-53
2023/08/09 09:40:35;;;;;;;11.52;6.65;;;18.00;99.90;;;;;;5031733;28;20061;-49
2023/08/09 09:43:04;;;;;;;11.85;6.35;;;18.00;99.90;;;;;;5031618;28;20438;-52
2023/08/09 09:45:30;;;;;;;11.00;6.93;;;18.10;99.90;;;;;;5031782;28;20037;-51
2023/08/09 09:47:58;;;;;;;12.05;7.30;;;18.40;99.90;;;;;;5031637;28;20033;-53
2023/08/09 09:50:27;;;;;;;14.55;8.85;;;18.40;99.90;;;;;;5031742;28;20072;-51
2023/08/09 09:52:53;;;;;;;13.95;8.27;;;18.40;99.90;;;;;;5031668;28;20445;-51
2023/08/09 09:55:20;;;;;;;12.55;7.43;;;18.50;99.90;;;;;;5031274;28;20061;-54
2023/08/09 09:57:47;;;;;;;9.63;5.30;;;18.50;99.90;;;;;;5031674;28;20033;-54
2023/08/09 10:00:15;;;;;;;10.00;5.38;;;18.40;99.90;;;;;;5031409;28;20040;-53
2023/08/09 10:02:47;;;;;;;11.70;5.80;;;18.70;99.90;;;;;;5031280;28;20029;-53
2023/08/09 10:05:37;;;;;;;8.45;5.15;;;18.80;99.90;;;;;;5031263;28;20026;-52
2023/08/09 10:08:11;;;;;;;9.07;5.72;;;18.90;99.90;;;;;;5021414;28;20057;-52
2023/08/09 10:10:39;;;;;;;8.80;4.38;;;19.00;99.90;;;;;;5031513;28;20072;-54
2023/08/09 10:13:07;;;;;;;8.73;4.50;;;19.10;99.90;;;;;;5031145;28;20073;-50
2023/08/09 10:15:46;;;;;;;7.78;4.70;;;19.20;99.90;;;;;;5030922;28;20037;-54
2023/08/09 10:18:24;;;;;;;6.30;3.42;;;19.30;99.90;;;;;;5031311;28;20060;-52
2023/08/09 10:20:52;;;;;;;6.40;2.42;;;19.30;99.90;;;;;;5031414;28;20362;-53
2023/08/09 10:23:28;;;;;;;4.55;2.78;;;19.20;99.90;;;;;;5031051;28;20124;-53
2023/08/09 10:25:55;;;;;;;5.93;2.70;;;19.10;99.90;;;;;;5030765;28;20512;-50
2023/08/09 10:28:44;;;;;;;4.15;2.10;;;19.30;99.90;;;;;;5031015;28;20036;-51
2023/08/09 10:31:10;;;;;;;;;;;19.30;99.90;;;;;;5031634;28;20033;-51
2023/08/09 10:33:36;;;;;;;5.55;2.72;;;19.40;99.90;;;;;;5030963;28;20345;-51
2023/08/09 10:36:01;;;;;;;4.68;2.00;;;19.30;99.90;;;;;;5012994;28;20120;-52
2023/08/09 10:38:30;;;;;;;3.47;2.28;;;19.30;99.90;;;;;;5030917;28;20034;-54
2023/08/09 10:40:55;;;;;;;3.20;1.80;;;19.30;99.90;;;;;;5030170;28;20037;-49
2023/08/09 10:43:25;;;;;;;4.85;2.00;;;19.20;99.90;;;;;;5030913;28;20070;-53
2023/08/09 10:45:53;;;;;;;6.40;2.20;;;19.20;99.90;;;;;;5030871;28;20052;-54
2023/08/09 10:48:29;;;;;;;3.47;1.65;;;19.20;99.90;;;;;;5030796;28;20072;-51
2023/08/09 10:51:13;;;;;;;2.50;1.50;;;19.40;99.90;;;;;;5030845;28;20112;-53
2023/08/09 10:53:56;;;;;;;2.30;1.50;;;19.30;99.90;;;;;;5030513;28;20080;-51
2023/08/09 10:56:30;;;;;;;7.72;2.72;;;19.20;99.90;;;;;;5030543;28;20112;-52
2023/08/09 10:59:04;;;;;;;5.97;2.75;;;19.10;99.90;;;;;;5030773;28;20244;-52
2023/08/09 11:01:32;;;;;;;8.88;2.72;;;19.00;99.90;;;;;;5030778;28;20033;-53
2023/08/09 11:03:58;;;;;;;5.35;2.38;;;18.90;99.90;;;;;;5030774;28;20029;-49
2023/08/09 11:06:38;;;;;;;3.03;1.60;;;18.80;99.90;;;;;;5030582;28;20398;-48
2023/08/09 11:09:12;;;;;;;5.90;1.95;;;18.90;99.90;;;;;;5030461;28;20041;-50
2023/08/09 11:11:40;;;;;;;6.15;2.10;;;18.80;99.90;;;;;;5030387;28;20063;-53
2023/08/09 11:14:06;;;;;;;2.70;1.50;;;18.90;99.90;;;;;;5030652;28;20121;-49
2023/08/09 11:16:32;;;;;;;3.80;1.77;;;19.00;99.90;;;;;;5030504;28;20055;-50
2023/08/09 11:19:12;;;;;;;3.83;1.50;;;19.10;99.90;;;;;;5030630;28;20018;-52
2023/08/09 11:21:39;;;;;;;3.05;1.42;;;19.00;99.90;;;;;;5030330;28;20026;-52
2023/08/09 11:24:07;;;;;;;3.28;1.23;;;19.10;99.90;;;;;;5030292;28;20026;-53
2023/08/09 11:26:34;;;;;;;5.05;2.15;;;19.10;99.90;;;;;;5030483;28;20061;-51
2023/08/09 11:29:01;;;;;;;3.72;1.90;;;19.20;99.90;;;;;;5030634;28;20425;-53
2023/08/09 11:31:27;;;;;;;7.22;2.33;;;19.30;99.90;;;;;;5012755;28;20049;-53
2023/08/09 11:33:57;;;;;;;6.47;1.48;;;19.40;99.90;;;;;;5030389;28;20033;-53
2023/08/09 11:36:30;;;;;;;3.05;1.50;;;19.40;99.90;;;;;;5030829;28;20056;-51
2023/08/09 11:38:59;;;;;;;4.53;1.33;;;19.50;99.90;;;;;;5030570;28;20452;-52
2023/08/09 11:41:26;;;;;;;3.03;1.50;;;19.60;99.90;;;;;;5030337;28;20112;-54
2023/08/09 11:43:52;;;;;;;6.57;1.80;;;19.70;99.90;;;;;;5012952;28;20101;-49
2023/08/09 11:46:22;;;;;;;4.95;1.70;;;19.70;99.90;;;;;;5030693;28;20037;-53
2023/08/09 11:48:50;;;;;;;7.60;2.80;;;19.70;99.90;;;;;;5030427;28;20083;-54
2023/08/09 11:51:20;;;;;;;2.80;1.15;;;19.90;99.90;;;;;;5030379;28;20514;-52
2023/08/09 11:53:50;;;;;;;3.33;1.20;;;19.80;99.90;;;;;;5034289;28;20037;-51
2023/08/09 11:56:20;;;;;;;2.97;1.50;;;19.70;99.90;;;;;;5034158;28;20489;-52
2023/08/09 11:58:52;;;;;;;5.22;2.22;;;19.70;99.90;;;;;;5034256;28;20494;-49
2023/08/09 12:01:26;;;;;;;5.15;1.40;;;19.80;99.90;;;;;;5000059;28;20504;-53
2023/08/09 12:03:53;;;;;;;2.47;1.30;;;19.80;99.90;;;;;;5033950;28;20040;-53
2023/08/09 12:06:34;;;;;;;3.83;1.40;;;19.90;99.90;;;;;;5034267;28;20033;-49
2023/08/09 12:09:00;;;;;;;3.28;1.50;;;20.00;99.90;;;;;;5034181;28;20041;-53
2023/08/09 12:11:26;;;;;;;3.53;1.77;;;20.20;99.90;;;;;;5034254;28;20060;-51
2023/08/09 12:13:51;;;;;;;3.10;1.95;;;20.30;99.90;;;;;;5034459;28;20025;-49
2023/08/09 12:16:17;;;;;;;5.63;2.28;;;20.30;99.90;;;;;;5034329;28;20482;-49
2023/08/09 12:18:43;;;;;;;31.08;15.32;;;20.30;99.90;;;;;;5034366;28;20030;-49
2023/08/09 12:21:08;;;;;;;12.50;5.63;;;20.40;99.90;;;;;;5034058;28;20048;-48
2023/08/09 12:23:36;;;;;;;16.60;8.25;;;20.30;99.90;;;;;;5015754;28;20394;-52
2023/08/09 12:26:02;;;;;;;12.52;6.88;;;20.30;99.90;;;;;;5033607;28;20037;-49
2023/08/09 12:28:28;;;;;;;14.60;7.72;;;20.30;99.90;;;;;;5034018;28;20041;-53
2023/08/09 12:30:53;;;;;;;26.00;14.75;;;20.40;99.90;;;;;;5033449;28;20108;-53
2023/08/09 12:33:20;;;;;;;8.63;3.83;;;20.50;99.90;;;;;;5033414;28;20406;-51
2023/08/09 12:35:45;;;;;;;7.50;3.63;;;20.40;99.90;;;;;;5033552;28;20087;-52
2023/08/09 12:38:11;;;;;;;9.10;3.83;;;20.60;99.90;;;;;;5033532;28;20026;-54
2023/08/09 12:40:38;;;;;;;8.02;4.10;;;20.70;99.90;;;;;;5033593;28;20482;-52
2023/08/09 12:43:04;;;;;;;4.70;1.58;;;20.90;99.90;;;;;;5033064;28;20029;-52